sensor_id;sensor_type;location;lat;lon;timestamp;P1;durP1;ratioP1;P2;durP2;ratioP2
23561;SDS011;11959;49.418;8.728;2024-03-08T00:01:55;24.67;;;15.93;;
23561;SDS011;11959;49.418;8.728;2024-03-08T00:04:20;24.52;;;14.98;;
23561;SDS011;11959;49.418;8.728;2024-03-08T00:06:46;25.05;;;15.35;;
23561;SDS011;11959;49.418;8.728;2024-03-08T00:09:12;24.52;;;16.23;;
23561;SDS011;11959;49.418;8.728;2024-03-08T00:11:39;24.52;;;16.38;;
23561;SDS011;11959;49.418;8.728;2024-03-08T00:14:04;26.55;;;16.25;;
23561;SDS011;11959;49.418;8.728;2024-03-08T00:16:32;26.20;;;15.35;;
23561;SDS011;11959;49.418;8.728;2024-03-08T00:18:58;28.02;;;16.88;;
23561;SDS011;11959;49.418;8.728;2024-03-08T00:21:24;27.23;;;17.05;;
23561;SDS011;11959;49.418;8.728;2024-03-08T00:23:51;25.85;;;15.45;;
23561;SDS011;11959;49.418;8.728;2024-03-08T00:26:19;26.23;;;15.82;;
23561;SDS011;11959;49.418;8.728;2024-03-08T00:28:45;25.17;;;16.45;;
23561;SDS011;11959;49.418;8.728;2024-03-08T00:31:10;26.42;;;16.73;;
23561;SDS011;11959;49.418;8.728;2024-03-08T00:33:36;26.63;;;16.13;;
23561;SDS011;11959;49.418;8.728;2024-03-08T00:36:02;23.70;;;15.35;;
23561;SDS011;11959;49.418;8.728;2024-03-08T00:38:27;24.63;;;15.35;;
23561;SDS011;11959;49.418;8.728;2024-03-08T00:40:53;25.80;;;15.27;;
23561;SDS011;11959;49.418;8.728;2024-03-08T00:43:19;25.52;;;16.23;;
23561;SDS011;11959;49.418;8.728;2024-03-08T00:45:44;28.35;;;15.25;;
23561;SDS011;11959;49.418;8.728;2024-03-08T00:48:10;24.77;;;15.50;;
23561;SDS011;11959;49.418;8.728;2024-03-08T00:50:36;25.77;;;16.30;;
23561;SDS011;11959;49.418;8.728;2024-03-08T00:53:01;28.05;;;16.27;;
23561;SDS011;11959;49.418;8.728;2024-03-08T00:55:28;26.08;;;15.57;;
23561;SDS011;11959;49.418;8.728;2024-03-08T00:57:54;25.17;;;15.75;;
23561;SDS011;11959;49.418;8.728;2024-03-08T01:00:20;26.13;;;15.38;;
23561;SDS011;11959;49.418;8.728;2024-03-08T01:02:46;26.27;;;15.68;;
23561;SDS011;11959;49.418;8.728;2024-03-08T01:05:12;22.88;;;14.93;;
23561;SDS011;11959;49.418;8.728;2024-03-08T01:07:38;23.83;;;15.77;;
23561;SDS011;11959;49.418;8.728;2024-03-08T01:10:04;25.92;;;15.82;;
23561;SDS011;11959;49.418;8.728;2024-03-08T01:12:34;28.25;;;16.08;;
23561;SDS011;11959;49.418;8.728;2024-03-08T01:15:00;24.48;;;15.48;;
23561;SDS011;11959;49.418;8.728;2024-03-08T01:17:26;28.13;;;15.80;;
23561;SDS011;11959;49.418;8.728;2024-03-08T01:19:51;22.75;;;15.02;;
23561;SDS011;11959;49.418;8.728;2024-03-08T01:22:18;24.67;;;15.68;;
23561;SDS011;11959;49.418;8.728;2024-03-08T01:24:44;24.25;;;15.20;;
23561;SDS011;11959;49.418;8.728;2024-03-08T01:27:10;25.85;;;15.85;;
23561;SDS011;11959;49.418;8.728;2024-03-08T01:29:37;28.98;;;16.15;;
23561;SDS011;11959;49.418;8.728;2024-03-08T01:32:02;25.27;;;16.33;;
23561;SDS011;11959;49.418;8.728;2024-03-08T01:34:28;26.10;;;14.82;;
23561;SDS011;11959;49.418;8.728;2024-03-08T01:36:54;26.85;;;16.05;;
23561;SDS011;11959;49.418;8.728;2024-03-08T01:39:22;26.63;;;16.17;;
23561;SDS011;11959;49.418;8.728;2024-03-08T01:41:48;27.98;;;16.85;;
23561;SDS011;11959;49.418;8.728;2024-03-08T01:44:14;26.17;;;15.82;;
23561;SDS011;11959;49.418;8.728;2024-03-08T01:46:46;27.90;;;15.85;;
23561;SDS011;11959;49.418;8.728;2024-03-08T01:49:13;25.10;;;15.30;;
23561;SDS011;11959;49.418;8.728;2024-03-08T01:51:40;23.83;;;15.30;;
23561;SDS011;11959;49.418;8.728;2024-03-08T01:54:07;24.85;;;16.35;;
23561;SDS011;11959;49.418;8.728;2024-03-08T01:56:35;27.10;;;16.17;;
23561;SDS011;11959;49.418;8.728;2024-03-08T01:59:01;28.52;;;16.95;;
23561;SDS011;11959;49.418;8.728;2024-03-08T02:01:27;24.67;;;15.60;;
23561;SDS011;11959;49.418;8.728;2024-03-08T02:03:53;23.90;;;15.95;;
23561;SDS011;11959;49.418;8.728;2024-03-08T02:06:19;26.83;;;15.73;;
23561;SDS011;11959;49.418;8.728;2024-03-08T02:08:45;25.80;;;15.93;;
23561;SDS011;11959;49.418;8.728;2024-03-08T02:11:11;24.67;;;15.40;;
23561;SDS011;11959;49.418;8.728;2024-03-08T02:13:37;26.45;;;16.38;;
23561;SDS011;11959;49.418;8.728;2024-03-08T02:16:03;24.58;;;15.30;;
23561;SDS011;11959;49.418;8.728;2024-03-08T02:18:29;25.17;;;15.20;;
23561;SDS011;11959;49.418;8.728;2024-03-08T02:20:56;24.30;;;15.35;;
23561;SDS011;11959;49.418;8.728;2024-03-08T02:23:24;26.50;;;15.70;;
23561;SDS011;11959;49.418;8.728;2024-03-08T02:25:51;25.52;;;15.05;;
23561;SDS011;11959;49.418;8.728;2024-03-08T02:28:18;25.35;;;15.38;;
23561;SDS011;11959;49.418;8.728;2024-03-08T02:30:47;25.85;;;16.00;;
23561;SDS011;11959;49.418;8.728;2024-03-08T02:33:20;28.20;;;16.73;;
23561;SDS011;11959;49.418;8.728;2024-03-08T02:35:47;24.80;;;15.23;;
23561;SDS011;11959;49.418;8.728;2024-03-08T02:38:14;24.90;;;14.95;;
23561;SDS011;11959;49.418;8.728;2024-03-08T02:40:44;24.33;;;16.08;;
23561;SDS011;11959;49.418;8.728;2024-03-08T02:43:11;25.92;;;16.10;;
23561;SDS011;11959;49.418;8.728;2024-03-08T02:45:38;27.15;;;15.05;;
23561;SDS011;11959;49.418;8.728;2024-03-08T02:48:04;25.45;;;15.65;;
23561;SDS011;11959;49.418;8.728;2024-03-08T02:50:33;23.52;;;15.68;;
23561;SDS011;11959;49.418;8.728;2024-03-08T02:53:00;26.10;;;15.30;;
23561;SDS011;11959;49.418;8.728;2024-03-08T02:55:26;24.13;;;15.50;;
23561;SDS011;11959;49.418;8.728;2024-03-08T02:57:52;25.75;;;15.43;;
23561;SDS011;11959;49.418;8.728;2024-03-08T03:00:19;24.67;;;15.75;;
23561;SDS011;11959;49.418;8.728;2024-03-08T03:02:46;27.20;;;15.88;;
23561;SDS011;11959;49.418;8.728;2024-03-08T03:05:12;25.67;;;15.90;;
23561;SDS011;11959;49.418;8.728;2024-03-08T03:07:38;27.52;;;15.48;;
23561;SDS011;11959;49.418;8.728;2024-03-08T03:10:04;25.35;;;14.98;;
23561;SDS011;11959;49.418;8.728;2024-03-08T03:12:30;28.13;;;16.65;;
23561;SDS011;11959;49.418;8.728;2024-03-08T03:14:57;27.27;;;16.02;;
23561;SDS011;11959;49.418;8.728;2024-03-08T03:17:26;28.38;;;16.67;;
23561;SDS011;11959;49.418;8.728;2024-03-08T03:19:52;30.80;;;18.02;;
23561;SDS011;11959;49.418;8.728;2024-03-08T03:22:18;25.85;;;15.98;;
23561;SDS011;11959;49.418;8.728;2024-03-08T03:24:44;28.25;;;16.20;;
23561;SDS011;11959;49.418;8.728;2024-03-08T03:27:11;28.58;;;15.27;;
23561;SDS011;11959;49.418;8.728;2024-03-08T03:29:40;27.45;;;15.40;;
23561;SDS011;11959;49.418;8.728;2024-03-08T03:32:14;29.27;;;16.98;;
23561;SDS011;11959;49.418;8.728;2024-03-08T03:34:41;27.23;;;15.77;;
23561;SDS011;11959;49.418;8.728;2024-03-08T03:37:08;28.20;;;16.52;;
23561;SDS011;11959;49.418;8.728;2024-03-08T03:39:37;30.60;;;16.83;;
23561;SDS011;11959;49.418;8.728;2024-03-08T03:42:18;28.63;;;16.15;;
23561;SDS011;11959;49.418;8.728;2024-03-08T03:44:45;27.13;;;17.15;;
23561;SDS011;11959;49.418;8.728;2024-03-08T03:47:12;26.25;;;15.93;;
23561;SDS011;11959;49.418;8.728;2024-03-08T03:49:38;27.38;;;15.43;;
23561;SDS011;11959;49.418;8.728;2024-03-08T03:52:04;29.20;;;17.00;;
23561;SDS011;11959;49.418;8.728;2024-03-08T03:54:30;26.67;;;15.85;;
23561;SDS011;11959;49.418;8.728;2024-03-08T03:56:56;28.05;;;16.17;;
23561;SDS011;11959;49.418;8.728;2024-03-08T03:59:22;26.30;;;15.45;;
23561;SDS011;11959;49.418;8.728;2024-03-08T04:01:49;30.88;;;17.05;;
23561;SDS011;11959;49.418;8.728;2024-03-08T04:04:15;27.17;;;16.25;;
23561;SDS011;11959;49.418;8.728;2024-03-08T04:06:41;27.02;;;16.30;;
23561;SDS011;11959;49.418;8.728;2024-03-08T04:09:07;30.30;;;16.67;;
23561;SDS011;11959;49.418;8.728;2024-03-08T04:11:33;30.63;;;17.40;;
23561;SDS011;11959;49.418;8.728;2024-03-08T04:13:58;29.63;;;16.92;;
23561;SDS011;11959;49.418;8.728;2024-03-08T04:16:24;28.25;;;17.33;;
23561;SDS011;11959;49.418;8.728;2024-03-08T04:18:51;26.25;;;15.77;;
23561;SDS011;11959;49.418;8.728;2024-03-08T04:21:17;30.58;;;16.95;;
23561;SDS011;11959;49.418;8.728;2024-03-08T04:23:44;28.05;;;17.30;;
23561;SDS011;11959;49.418;8.728;2024-03-08T04:26:10;32.08;;;17.88;;
23561;SDS011;11959;49.418;8.728;2024-03-08T04:28:36;28.40;;;16.27;;
23561;SDS011;11959;49.418;8.728;2024-03-08T04:31:02;30.50;;;16.77;;
23561;SDS011;11959;49.418;8.728;2024-03-08T04:33:28;29.25;;;17.40;;
23561;SDS011;11959;49.418;8.728;2024-03-08T04:35:54;26.83;;;16.48;;
23561;SDS011;11959;49.418;8.728;2024-03-08T04:38:20;32.85;;;18.17;;
23561;SDS011;11959;49.418;8.728;2024-03-08T04:40:45;28.92;;;16.98;;
23561;SDS011;11959;49.418;8.728;2024-03-08T04:43:11;30.15;;;17.40;;
23561;SDS011;11959;49.418;8.728;2024-03-08T04:45:37;30.05;;;18.05;;
23561;SDS011;11959;49.418;8.728;2024-03-08T04:48:04;30.65;;;16.77;;
23561;SDS011;11959;49.418;8.728;2024-03-08T04:50:30;29.45;;;17.13;;
23561;SDS011;11959;49.418;8.728;2024-03-08T04:52:55;32.33;;;18.80;;
23561;SDS011;11959;49.418;8.728;2024-03-08T04:55:21;31.45;;;17.38;;
23561;SDS011;11959;49.418;8.728;2024-03-08T04:57:48;32.22;;;18.17;;
23561;SDS011;11959;49.418;8.728;2024-03-08T05:00:14;27.40;;;16.98;;
23561;SDS011;11959;49.418;8.728;2024-03-08T05:02:40;30.58;;;16.55;;
23561;SDS011;11959;49.418;8.728;2024-03-08T05:05:07;28.77;;;16.85;;
23561;SDS011;11959;49.418;8.728;2024-03-08T05:07:40;28.45;;;17.17;;
23561;SDS011;11959;49.418;8.728;2024-03-08T05:10:06;30.52;;;17.42;;
23561;SDS011;11959;49.418;8.728;2024-03-08T05:12:32;32.25;;;18.15;;
23561;SDS011;11959;49.418;8.728;2024-03-08T05:14:58;28.25;;;16.55;;
23561;SDS011;11959;49.418;8.728;2024-03-08T05:17:24;31.65;;;18.23;;
23561;SDS011;11959;49.418;8.728;2024-03-08T05:19:50;29.67;;;17.80;;
23561;SDS011;11959;49.418;8.728;2024-03-08T05:22:16;30.52;;;17.23;;
23561;SDS011;11959;49.418;8.728;2024-03-08T05:24:42;32.53;;;18.00;;
23561;SDS011;11959;49.418;8.728;2024-03-08T05:27:08;33.92;;;18.08;;
23561;SDS011;11959;49.418;8.728;2024-03-08T05:29:33;33.58;;;17.38;;
23561;SDS011;11959;49.418;8.728;2024-03-08T05:31:59;30.08;;;17.67;;
23561;SDS011;11959;49.418;8.728;2024-03-08T05:34:25;32.55;;;18.10;;
23561;SDS011;11959;49.418;8.728;2024-03-08T05:36:53;32.80;;;18.45;;
23561;SDS011;11959;49.418;8.728;2024-03-08T05:39:19;32.95;;;18.00;;
23561;SDS011;11959;49.418;8.728;2024-03-08T05:41:45;29.42;;;17.88;;
23561;SDS011;11959;49.418;8.728;2024-03-08T05:44:11;30.75;;;17.95;;
23561;SDS011;11959;49.418;8.728;2024-03-08T05:46:38;33.67;;;18.70;;
23561;SDS011;11959;49.418;8.728;2024-03-08T05:49:04;30.50;;;18.08;;
23561;SDS011;11959;49.418;8.728;2024-03-08T05:51:31;29.73;;;17.55;;
23561;SDS011;11959;49.418;8.728;2024-03-08T05:54:03;33.25;;;18.30;;
23561;SDS011;11959;49.418;8.728;2024-03-08T05:56:30;30.13;;;18.27;;
23561;SDS011;11959;49.418;8.728;2024-03-08T05:58:57;32.90;;;17.80;;
23561;SDS011;11959;49.418;8.728;2024-03-08T06:01:25;31.48;;;17.65;;
23561;SDS011;11959;49.418;8.728;2024-03-08T06:03:55;29.23;;;17.92;;
23561;SDS011;11959;49.418;8.728;2024-03-08T06:06:22;29.05;;;17.42;;
23561;SDS011;11959;49.418;8.728;2024-03-08T06:08:48;31.45;;;18.65;;
23561;SDS011;11959;49.418;8.728;2024-03-08T06:11:14;28.55;;;17.65;;
23561;SDS011;11959;49.418;8.728;2024-03-08T06:13:42;30.48;;;18.52;;
23561;SDS011;11959;49.418;8.728;2024-03-08T06:16:08;29.77;;;17.88;;
23561;SDS011;11959;49.418;8.728;2024-03-08T06:18:34;28.55;;;17.00;;
23561;SDS011;11959;49.418;8.728;2024-03-08T06:21:04;26.92;;;17.33;;
23561;SDS011;11959;49.418;8.728;2024-03-08T06:23:31;31.02;;;17.85;;
23561;SDS011;11959;49.418;8.728;2024-03-08T06:25:57;32.90;;;18.50;;
23561;SDS011;11959;49.418;8.728;2024-03-08T06:28:23;30.85;;;18.02;;
23561;SDS011;11959;49.418;8.728;2024-03-08T06:30:49;31.58;;;18.55;;
23561;SDS011;11959;49.418;8.728;2024-03-08T06:33:16;30.10;;;18.23;;
23561;SDS011;11959;49.418;8.728;2024-03-08T06:35:44;32.20;;;18.35;;
23561;SDS011;11959;49.418;8.728;2024-03-08T06:38:10;32.65;;;18.45;;
23561;SDS011;11959;49.418;8.728;2024-03-08T06:40:36;31.00;;;19.15;;
23561;SDS011;11959;49.418;8.728;2024-03-08T06:43:02;32.00;;;17.60;;
23561;SDS011;11959;49.418;8.728;2024-03-08T06:45:31;32.13;;;19.00;;
23561;SDS011;11959;49.418;8.728;2024-03-08T06:47:57;29.75;;;18.05;;
23561;SDS011;11959;49.418;8.728;2024-03-08T06:50:22;29.45;;;17.77;;
23561;SDS011;11959;49.418;8.728;2024-03-08T06:52:48;29.50;;;17.77;;
23561;SDS011;11959;49.418;8.728;2024-03-08T06:55:18;29.63;;;17.80;;
23561;SDS011;11959;49.418;8.728;2024-03-08T06:57:45;30.08;;;17.50;;
23561;SDS011;11959;49.418;8.728;2024-03-08T07:00:10;31.38;;;18.25;;
23561;SDS011;11959;49.418;8.728;2024-03-08T07:02:43;27.98;;;16.90;;
23561;SDS011;11959;49.418;8.728;2024-03-08T07:05:13;31.48;;;18.80;;
23561;SDS011;11959;49.418;8.728;2024-03-08T07:07:39;28.70;;;17.27;;
23561;SDS011;11959;49.418;8.728;2024-03-08T07:10:06;26.77;;;16.77;;
23561;SDS011;11959;49.418;8.728;2024-03-08T07:12:36;31.80;;;17.70;;
23561;SDS011;11959;49.418;8.728;2024-03-08T07:15:02;27.65;;;16.23;;
23561;SDS011;11959;49.418;8.728;2024-03-08T07:17:30;28.90;;;16.92;;
23561;SDS011;11959;49.418;8.728;2024-03-08T07:19:55;30.63;;;17.05;;
23561;SDS011;11959;49.418;8.728;2024-03-08T07:22:24;28.73;;;17.88;;
23561;SDS011;11959;49.418;8.728;2024-03-08T07:24:50;30.02;;;18.15;;
23561;SDS011;11959;49.418;8.728;2024-03-08T07:27:41;30.02;;;18.70;;
23561;SDS011;11959;49.418;8.728;2024-03-08T07:30:07;30.13;;;17.17;;
23561;SDS011;11959;49.418;8.728;2024-03-08T07:32:35;28.05;;;17.15;;
23561;SDS011;11959;49.418;8.728;2024-03-08T07:35:01;27.08;;;17.05;;
23561;SDS011;11959;49.418;8.728;2024-03-08T07:37:27;30.10;;;17.88;;
23561;SDS011;11959;49.418;8.728;2024-03-08T07:39:52;30.20;;;17.92;;
23561;SDS011;11959;49.418;8.728;2024-03-08T07:42:18;31.52;;;17.33;;
23561;SDS011;11959;49.418;8.728;2024-03-08T07:44:43;27.60;;;16.55;;
23561;SDS011;11959;49.418;8.728;2024-03-08T07:47:11;30.73;;;18.20;;
23561;SDS011;11959;49.418;8.728;2024-03-08T07:49:37;29.70;;;18.08;;
23561;SDS011;11959;49.418;8.728;2024-03-08T07:52:03;31.17;;;18.33;;
23561;SDS011;11959;49.418;8.728;2024-03-08T07:54:29;29.60;;;18.05;;
23561;SDS011;11959;49.418;8.728;2024-03-08T07:56:56;32.00;;;17.70;;
23561;SDS011;11959;49.418;8.728;2024-03-08T07:59:21;30.13;;;17.17;;
23561;SDS011;11959;49.418;8.728;2024-03-08T08:01:47;29.58;;;17.23;;
23561;SDS011;11959;49.418;8.728;2024-03-08T08:04:13;32.42;;;17.48;;
23561;SDS011;11959;49.418;8.728;2024-03-08T08:06:39;29.88;;;17.40;;
23561;SDS011;11959;49.418;8.728;2024-03-08T08:09:08;31.35;;;17.95;;
23561;SDS011;11959;49.418;8.728;2024-03-08T08:11:40;29.55;;;17.35;;
23561;SDS011;11959;49.418;8.728;2024-03-08T08:14:08;31.60;;;18.23;;
23561;SDS011;11959;49.418;8.728;2024-03-08T08:16:35;26.10;;;16.67;;
23561;SDS011;11959;49.418;8.728;2024-03-08T08:19:05;28.77;;;17.65;;
23561;SDS011;11959;49.418;8.728;2024-03-08T08:21:35;27.98;;;16.85;;
23561;SDS011;11959;49.418;8.728;2024-03-08T08:24:02;29.23;;;17.27;;
23561;SDS011;11959;49.418;8.728;2024-03-08T08:26:28;30.58;;;17.30;;
23561;SDS011;11959;49.418;8.728;2024-03-08T08:28:54;27.13;;;16.38;;
23561;SDS011;11959;49.418;8.728;2024-03-08T08:31:20;28.98;;;16.70;;
23561;SDS011;11959;49.418;8.728;2024-03-08T08:33:46;27.65;;;16.92;;
23561;SDS011;11959;49.418;8.728;2024-03-08T08:36:13;30.02;;;17.35;;
23561;SDS011;11959;49.418;8.728;2024-03-08T08:38:39;29.48;;;18.23;;
23561;SDS011;11959;49.418;8.728;2024-03-08T08:41:07;28.77;;;17.13;;
23561;SDS011;11959;49.418;8.728;2024-03-08T08:43:34;31.50;;;17.70;;
23561;SDS011;11959;49.418;8.728;2024-03-08T08:46:00;32.13;;;18.95;;
23561;SDS011;11959;49.418;8.728;2024-03-08T08:48:26;30.67;;;17.60;;
23561;SDS011;11959;49.418;8.728;2024-03-08T08:50:54;29.10;;;17.70;;
23561;SDS011;11959;49.418;8.728;2024-03-08T08:53:20;30.48;;;17.27;;
23561;SDS011;11959;49.418;8.728;2024-03-08T08:55:46;26.27;;;17.13;;
23561;SDS011;11959;49.418;8.728;2024-03-08T08:58:12;27.20;;;17.80;;
23561;SDS011;11959;49.418;8.728;2024-03-08T09:00:39;28.85;;;17.08;;
23561;SDS011;11959;49.418;8.728;2024-03-08T09:03:05;27.70;;;17.65;;
23561;SDS011;11959;49.418;8.728;2024-03-08T09:05:31;27.25;;;18.02;;
23561;SDS011;11959;49.418;8.728;2024-03-08T09:07:58;27.63;;;16.77;;
23561;SDS011;11959;49.418;8.728;2024-03-08T09:10:25;28.10;;;17.15;;
23561;SDS011;11959;49.418;8.728;2024-03-08T09:12:50;26.73;;;16.00;;
23561;SDS011;11959;49.418;8.728;2024-03-08T09:15:16;30.70;;;17.30;;
23561;SDS011;11959;49.418;8.728;2024-03-08T09:17:45;26.75;;;16.85;;
23561;SDS011;11959;49.418;8.728;2024-03-08T09:20:12;30.38;;;16.83;;
23561;SDS011;11959;49.418;8.728;2024-03-08T09:22:40;26.80;;;16.65;;
23561;SDS011;11959;49.418;8.728;2024-03-08T09:25:08;27.85;;;17.10;;
23561;SDS011;11959;49.418;8.728;2024-03-08T09:27:34;29.20;;;17.30;;
23561;SDS011;11959;49.418;8.728;2024-03-08T09:30:00;27.02;;;16.48;;
23561;SDS011;11959;49.418;8.728;2024-03-08T09:32:26;29.55;;;16.58;;
23561;SDS011;11959;49.418;8.728;2024-03-08T09:34:51;28.73;;;17.10;;
23561;SDS011;11959;49.418;8.728;2024-03-08T09:37:17;26.15;;;16.67;;
23561;SDS011;11959;49.418;8.728;2024-03-08T09:39:44;27.13;;;16.13;;
23561;SDS011;11959;49.418;8.728;2024-03-08T09:42:09;27.92;;;16.42;;
23561;SDS011;11959;49.418;8.728;2024-03-08T09:44:39;24.13;;;16.00;;
23561;SDS011;11959;49.418;8.728;2024-03-08T09:47:10;26.08;;;15.98;;
23561;SDS011;11959;49.418;8.728;2024-03-08T09:49:39;27.48;;;15.70;;
23561;SDS011;11959;49.418;8.728;2024-03-08T09:52:06;26.45;;;15.80;;
23561;SDS011;11959;49.418;8.728;2024-03-08T09:54:32;23.08;;;15.25;;
23561;SDS011;11959;49.418;8.728;2024-03-08T09:56:58;26.50;;;16.33;;
23561;SDS011;11959;49.418;8.728;2024-03-08T09:59:24;26.15;;;15.50;;
23561;SDS011;11959;49.418;8.728;2024-03-08T10:02:09;24.15;;;15.88;;
23561;SDS011;11959;49.418;8.728;2024-03-08T10:04:40;26.80;;;15.73;;
23561;SDS011;11959;49.418;8.728;2024-03-08T10:07:11;26.85;;;16.20;;
23561;SDS011;11959;49.418;8.728;2024-03-08T10:09:38;24.13;;;15.82;;
23561;SDS011;11959;49.418;8.728;2024-03-08T10:12:04;24.33;;;15.57;;
23561;SDS011;11959;49.418;8.728;2024-03-08T10:14:30;23.98;;;14.68;;
23561;SDS011;11959;49.418;8.728;2024-03-08T10:16:57;24.63;;;15.77;;
23561;SDS011;11959;49.418;8.728;2024-03-08T10:19:26;25.27;;;15.50;;
23561;SDS011;11959;49.418;8.728;2024-03-08T10:21:55;27.63;;;15.73;;
23561;SDS011;11959;49.418;8.728;2024-03-08T10:24:24;27.75;;;16.10;;
23561;SDS011;11959;49.418;8.728;2024-03-08T10:27:00;26.95;;;16.00;;
23561;SDS011;11959;49.418;8.728;2024-03-08T10:29:32;24.75;;;15.30;;
23561;SDS011;11959;49.418;8.728;2024-03-08T10:31:58;25.58;;;15.52;;
23561;SDS011;11959;49.418;8.728;2024-03-08T10:34:23;23.95;;;15.05;;
23561;SDS011;11959;49.418;8.728;2024-03-08T10:36:50;26.23;;;15.43;;
23561;SDS011;11959;49.418;8.728;2024-03-08T10:41:53;24.60;;;15.18;;
23561;SDS011;11959;49.418;8.728;2024-03-08T10:49:45;24.52;;;15.25;;
23561;SDS011;11959;49.418;8.728;2024-03-08T10:52:12;26.85;;;16.13;;
23561;SDS011;11959;49.418;8.728;2024-03-08T10:54:40;24.17;;;15.43;;
23561;SDS011;11959;49.418;8.728;2024-03-08T10:57:08;26.88;;;16.17;;
23561;SDS011;11959;49.418;8.728;2024-03-08T10:59:35;24.95;;;14.93;;
23561;SDS011;11959;49.418;8.728;2024-03-08T11:02:01;27.80;;;16.13;;
23561;SDS011;11959;49.418;8.728;2024-03-08T11:04:30;24.15;;;15.25;;
23561;SDS011;11959;49.418;8.728;2024-03-08T11:07:01;24.98;;;15.80;;
23561;SDS011;11959;49.418;8.728;2024-03-08T11:09:32;27.17;;;16.75;;
23561;SDS011;11959;49.418;8.728;2024-03-08T11:14:47;24.02;;;15.65;;
23561;SDS011;11959;49.418;8.728;2024-03-08T11:17:20;26.10;;;16.05;;
23561;SDS011;11959;49.418;8.728;2024-03-08T11:19:50;25.15;;;15.93;;
23561;SDS011;11959;49.418;8.728;2024-03-08T11:22:26;26.27;;;16.48;;
23561;SDS011;11959;49.418;8.728;2024-03-08T11:24:59;26.27;;;16.05;;
23561;SDS011;11959;49.418;8.728;2024-03-08T11:27:35;28.48;;;16.65;;
23561;SDS011;11959;49.418;8.728;2024-03-08T11:30:08;26.95;;;15.90;;
23561;SDS011;11959;49.418;8.728;2024-03-08T11:32:36;24.55;;;16.30;;
23561;SDS011;11959;49.418;8.728;2024-03-08T11:35:05;26.15;;;14.85;;
23561;SDS011;11959;49.418;8.728;2024-03-08T11:37:33;23.90;;;15.32;;
23561;SDS011;11959;49.418;8.728;2024-03-08T11:40:02;24.08;;;15.88;;
23561;SDS011;11959;49.418;8.728;2024-03-08T11:42:48;26.15;;;15.25;;
23561;SDS011;11959;49.418;8.728;2024-03-08T11:45:16;25.00;;;16.23;;
23561;SDS011;11959;49.418;8.728;2024-03-08T11:47:45;25.70;;;16.10;;
23561;SDS011;11959;49.418;8.728;2024-03-08T11:50:11;23.38;;;15.35;;
23561;SDS011;11959;49.418;8.728;2024-03-08T11:52:41;25.45;;;15.70;;
23561;SDS011;11959;49.418;8.728;2024-03-08T11:55:08;26.05;;;15.65;;
23561;SDS011;11959;49.418;8.728;2024-03-08T11:57:34;25.52;;;15.52;;
23561;SDS011;11959;49.418;8.728;2024-03-08T12:00:00;23.60;;;16.27;;
23561;SDS011;11959;49.418;8.728;2024-03-08T12:02:32;29.50;;;15.93;;
23561;SDS011;11959;49.418;8.728;2024-03-08T12:05:00;25.58;;;15.68;;
23561;SDS011;11959;49.418;8.728;2024-03-08T12:07:28;24.58;;;15.20;;
23561;SDS011;11959;49.418;8.728;2024-03-08T12:12:44;26.52;;;16.25;;
23561;SDS011;11959;49.418;8.728;2024-03-08T12:15:11;28.02;;;15.95;;
23561;SDS011;11959;49.418;8.728;2024-03-08T12:17:37;25.70;;;15.65;;
23561;SDS011;11959;49.418;8.728;2024-03-08T12:22:44;25.33;;;16.38;;
23561;SDS011;11959;49.418;8.728;2024-03-08T12:25:13;24.80;;;16.23;;
23561;SDS011;11959;49.418;8.728;2024-03-08T12:27:42;23.70;;;15.23;;
23561;SDS011;11959;49.418;8.728;2024-03-08T12:30:18;27.40;;;16.27;;
23561;SDS011;11959;49.418;8.728;2024-03-08T12:32:47;26.67;;;16.67;;
23561;SDS011;11959;49.418;8.728;2024-03-08T12:35:18;23.77;;;15.52;;
23561;SDS011;11959;49.418;8.728;2024-03-08T12:37:47;24.30;;;15.80;;
23561;SDS011;11959;49.418;8.728;2024-03-08T12:40:14;25.30;;;15.18;;
23561;SDS011;11959;49.418;8.728;2024-03-08T12:42:42;26.15;;;16.05;;
23561;SDS011;11959;49.418;8.728;2024-03-08T12:45:12;24.98;;;16.00;;
23561;SDS011;11959;49.418;8.728;2024-03-08T12:47:39;23.38;;;15.57;;
23561;SDS011;11959;49.418;8.728;2024-03-08T12:50:07;25.40;;;15.38;;
23561;SDS011;11959;49.418;8.728;2024-03-08T12:52:34;24.73;;;15.10;;
23561;SDS011;11959;49.418;8.728;2024-03-08T12:54:59;23.42;;;15.73;;
23561;SDS011;11959;49.418;8.728;2024-03-08T12:57:28;25.20;;;15.93;;
23561;SDS011;11959;49.418;8.728;2024-03-08T12:59:54;25.65;;;15.75;;
23561;SDS011;11959;49.418;8.728;2024-03-08T13:02:20;23.55;;;15.23;;
23561;SDS011;11959;49.418;8.728;2024-03-08T13:04:46;25.02;;;15.75;;
23561;SDS011;11959;49.418;8.728;2024-03-08T13:07:20;23.30;;;14.93;;
23561;SDS011;11959;49.418;8.728;2024-03-08T13:09:46;23.48;;;14.50;;
23561;SDS011;11959;49.418;8.728;2024-03-08T13:12:12;26.77;;;16.25;;
23561;SDS011;11959;49.418;8.728;2024-03-08T13:14:40;26.83;;;15.70;;
23561;SDS011;11959;49.418;8.728;2024-03-08T13:17:06;24.95;;;15.85;;
23561;SDS011;11959;49.418;8.728;2024-03-08T13:19:35;26.30;;;16.48;;
23561;SDS011;11959;49.418;8.728;2024-03-08T13:22:03;23.60;;;14.35;;
23561;SDS011;11959;49.418;8.728;2024-03-08T13:24:32;20.90;;;15.20;;
23561;SDS011;11959;49.418;8.728;2024-03-08T13:27:00;20.67;;;13.85;;
23561;SDS011;11959;49.418;8.728;2024-03-08T13:29:26;22.20;;;13.70;;
23561;SDS011;11959;49.418;8.728;2024-03-08T13:31:52;20.83;;;13.90;;
23561;SDS011;11959;49.418;8.728;2024-03-08T13:34:20;22.25;;;14.10;;
23561;SDS011;11959;49.418;8.728;2024-03-08T13:36:54;23.88;;;15.45;;
23561;SDS011;11959;49.418;8.728;2024-03-08T13:39:24;22.42;;;14.48;;
23561;SDS011;11959;49.418;8.728;2024-03-08T13:41:51;21.83;;;14.25;;
23561;SDS011;11959;49.418;8.728;2024-03-08T13:44:16;22.52;;;14.13;;
23561;SDS011;11959;49.418;8.728;2024-03-08T13:46:46;24.55;;;14.93;;
23561;SDS011;11959;49.418;8.728;2024-03-08T13:49:12;22.10;;;14.23;;
23561;SDS011;11959;49.418;8.728;2024-03-08T13:51:38;24.45;;;15.30;;
23561;SDS011;11959;49.418;8.728;2024-03-08T13:54:04;21.33;;;13.95;;
23561;SDS011;11959;49.418;8.728;2024-03-08T13:56:32;22.88;;;14.85;;
23561;SDS011;11959;49.418;8.728;2024-03-08T13:58:57;21.10;;;14.10;;
23561;SDS011;11959;49.418;8.728;2024-03-08T14:01:23;23.05;;;14.18;;
23561;SDS011;11959;49.418;8.728;2024-03-08T14:03:50;21.52;;;14.10;;
23561;SDS011;11959;49.418;8.728;2024-03-08T14:06:15;23.08;;;14.10;;
23561;SDS011;11959;49.418;8.728;2024-03-08T14:08:41;21.25;;;13.98;;
23561;SDS011;11959;49.418;8.728;2024-03-08T14:11:07;22.27;;;14.23;;
23561;SDS011;11959;49.418;8.728;2024-03-08T14:13:43;21.42;;;13.38;;
23561;SDS011;11959;49.418;8.728;2024-03-08T14:18:38;20.73;;;13.55;;
23561;SDS011;11959;49.418;8.728;2024-03-08T14:21:07;22.30;;;13.95;;
23561;SDS011;11959;49.418;8.728;2024-03-08T14:23:37;20.60;;;13.40;;
23561;SDS011;11959;49.418;8.728;2024-03-08T14:26:03;22.10;;;13.65;;
23561;SDS011;11959;49.418;8.728;2024-03-08T14:28:32;20.98;;;13.50;;
23561;SDS011;11959;49.418;8.728;2024-03-08T14:30:57;20.77;;;13.20;;
23561;SDS011;11959;49.418;8.728;2024-03-08T14:33:23;20.10;;;13.48;;
23561;SDS011;11959;49.418;8.728;2024-03-08T14:35:50;20.90;;;13.65;;
23561;SDS011;11959;49.418;8.728;2024-03-08T14:38:16;22.73;;;13.98;;
23561;SDS011;11959;49.418;8.728;2024-03-08T14:40:42;19.25;;;13.02;;